• Join FlightAware (Why Join?)
  • Login
  • US Flag 
03:15AM EDT


 

Airport Tracker/Info


-or-


 

Live Flight TrackerFlight Track Log ✈ N650CH ✈ 09-Oct-2013 ✈ KPIR - KSTP

Flight Track Log - Related Links

Times and Time Zones

All times are in EDT time to prevent confusion due to time zone crossing. See the N650CH flight status page for this flight to view local times or setup timezone preferences in your user account.

Time Position Orientation Groundspeed Altitude Reporting Facility
EDT Latitude Longitude Course Direction KTS MPH feet Rate Location/Type
03:02PM 44.3958 -100.1525 90° East 217 250 5,900  Level Minneapolis Center
03:03PM 44.4028 -100.0522 84° East 234 269 8,400 2,400 Climbing Minneapolis Center
03:04PM 44.4089 -99.9381 86° East 262 302 10,900 2,400 Climbing Minneapolis Center
03:05PM 44.4161 -99.8183 85° East 287 330 13,400 2,100 Climbing Minneapolis Center
03:07PM 44.4233 -99.6919 85° East 311 358 15,300 1,740 Climbing Minneapolis Center
03:08PM 44.4694 -99.4609 90° East  Level Estimated
03:08PM 44.4297 -99.5525 86° East 346 398 17,000  Level Minneapolis Center
03:09PM 44.4394 -99.3772 85° East 371 427 19,100 1,860 Climbing Minneapolis Center
03:10PM 44.4469 -99.2289 86° East 381 438 20,900 1,680 Climbing Minneapolis Center
03:11PM 44.4561 -99.0753 85° East 391 450 22,600 1,680 Climbing Minneapolis Center
03:12PM 44.4642 -98.9194 86° East 399 459 24,400 1,680 Climbing Minneapolis Center
03:13PM 44.4714 -98.7606 86° East 407 468 26,100 1,680 Climbing Minneapolis Center
03:14PM 44.4803 -98.5997 86° East 412 474 27,900 1,860 Climbing Minneapolis Center
03:15PM 44.4889 -98.4039 86° East 419 482 30,000 1,380 Climbing Minneapolis Center
03:16PM 44.4953 -98.2647 86° East 421 484 30,800 960 Climbing Minneapolis Center
03:17PM 44.5042 -98.0572 86° East 440 506 32,000 960 Climbing Minneapolis Center
03:18PM 44.5114 -97.8789 87° East 454 522 32,900 480 Climbing Minneapolis Center
03:19PM 44.5183 -97.6950 87° East 469 540 33,000  Climbing Minneapolis Center
03:20PM 44.5250 -97.5039 87° East 488 562 33,000  Level Minneapolis Center
03:21PM 44.5322 -97.3092 87° East 499 574 33,000  Level Minneapolis Center
03:22PM 44.5394 -97.1147 87° East 500 575 33,000  Level Minneapolis Center
03:23PM 44.5469 -96.8825 87° East 497 572 33,000  Level Minneapolis Center
03:24PM 44.5531 -96.6892 87° East 495 570 33,000  Level Minneapolis Center
03:25PM 44.5586 -96.4967 88° East 493 567 33,000  Level Minneapolis Center
03:26PM 44.5647 -96.3028 87° East 494 568 33,000  Level Minneapolis Center
03:27PM 44.5700 -96.1103 88° East 491 565 33,000 -780 Level Minneapolis Center
03:28PM 44.5742 -95.9256 88° East 477 549 31,500 -1,800 Descending Minneapolis Center
03:29PM 44.5783 -95.7436 88° East 468 539 29,400 -2,100 Descending Minneapolis Center
03:30PM 44.5811 -95.5617 89° East 466 536 27,200 -2,220 Descending Minneapolis Center
03:31PM 44.5922 -95.3822 85° East 463 533 24,900 -2,520 Descending Minneapolis Center
03:32PM 44.6386 -95.1783 72° East 458 527 22,100 -2,520 Descending Minneapolis Center
03:33PM 44.6708 -95.0139 75° East 445 512 19,800 -2,280 Descending Minneapolis Center
03:34PM 44.7036 -94.8569 74° East 427 491 17,500 -2,280 Descending Minneapolis Center
03:35PM 44.7356 -94.7061 73° East 411 473 15,200 -2,400 Descending Minneapolis Center
03:36PM 44.7686 -94.5497 73° East 382 440 12,600 -2,400 Descending Minneapolis Center
03:37PM 44.7958 -94.4153 74° East 360 414 10,300 -2,220 Descending Minneapolis Center
03:38PM 44.8217 -94.2858 74° East 344 396 8,100 -1,200 Descending Minneapolis Center
03:39PM 44.8433 -94.1681 75° East 311 358 7,900 -540 Descending Minneapolis Center
03:41PM 44.8511 -94.0519 85° East 300 345 7,100 -1,080 Descending Minneapolis Center
03:42PM 44.8553 -93.9325 87° East 306 352 5,800 -1,080 Descending Minneapolis Center
03:43PM 44.8450 -93.8144 97° East 306 352 5,000 -420 Descending Minneapolis Center
03:44PM 44.8406 -93.6856 93° East 276 318 5,000  Level Minneapolis Center
03:45PM 44.8356 -93.5858 94° East 258 297 5,000 -180 Level Minneapolis Center
03:46PM 44.8306 -93.4889 94° East 250 288 4,700 -540 Descending Minneapolis Center
03:47PM 44.8553 -93.3914 70° East 275 316 4,000 -360 Descending Minneapolis Center
03:48PM 44.8958 -93.3136 54° Northeast 243 280 4,000 -240 Level Minneapolis Center
03:49PM 44.9311 -93.2397 56° Northeast 226 260 3,600 -540 Descending Minneapolis Center
03:50PM 44.9583 -93.1658 62° Northeast 212 244 2,900 -840 Descending Minneapolis Center
03:51PM 44.9719 -93.1008 73° East 175 201 1,900 -900 Descending Minneapolis Center
03:52PM 44.9383 -93.0650 143° Southeast 139 160 1,100 -840 Descending Minneapolis Center
03:54PM 44.9333 -93.0500 133° Southeast  Level FlightAware Approximate
04:01PM 44.9346 -93.0603 133° Southeast  Level Estimated